Aidamar — ICSJ — position and weather

sailwx.info

Track history (hours):
 
Tides and Currents Weather Stations Pressure Air Temp Water Temp Dewpoint Dewpoint Depression Visibility Wind Speed Wind Dir Waves Ship Positions

Aidamar

Last reported at 2014-Nov-24 20:33 UTC. Time now 2014-Nov-24 22:49 UTC.
Position N 38°42' E 013°35'.

Length 253 m; draft 7.3 m.

Type: Ship. MMSI: 247312900.

Date/timePositionNaut miles runAvg speedWind from/ knotsBaromVisibWave heightAir tempDewpointWater temp
2014-Nov-24 20:33N 38°42' E 013°35'1616.4
2014-Nov-24 19:33N 38°26' E 013°31'1616.4
2014-Nov-24 18:33N 38°10' E 013°26'4 3.9
2014-Nov-24 17:31N 38°08' E 013°22'0 0.0
2014-Nov-24 16:33N 38°08' E 013°22'0 0.0
2014-Nov-24 15:32N 38°08' E 013°22'0 0.0
2014-Nov-24 14:32N 38°08' E 013°22'0 0.0
2014-Nov-24 13:31N 38°08' E 013°22'0 0.0
2014-Nov-24 12:33N 38°08' E 013°22'0 0.0
2014-Nov-24 11:33N 38°08' E 013°22'0 0.0
2014-Nov-24 10:32N 38°08' E 013°22'0 0.0
2014-Nov-24 09:30N 38°08' E 013°22'0 0.0
2014-Nov-24 08:33N 38°08' E 013°22'0 0.0
2014-Nov-24 07:33N 38°08' E 013°22'5 5.2
2014-Nov-24 06:33N 38°13' E 013°24'1414.1
2014-Nov-24 05:34N 38°18' E 013°07'1616.2
2014-Nov-24 04:34N 38°20' E 012°46'1716.0
2014-Nov-24 03:32N 38°21' E 012°25'11115.9
2014-Nov-23 20:34N 38°31' E 010°05'1615.5
2014-Nov-23 19:32N 38°32' E 009°45'1515.3
2014-Nov-23 18:33N 38°33' E 009°25'1616.1
2014-Nov-23 17:33N 38°35' E 009°05'1918.9
2014-Nov-23 16:33N 38°37' E 008°41'1918.6
2014-Nov-23 15:33N 38°38' E 008°17'1818.3
2014-Nov-23 14:33N 38°40' E 007°54'1717.3
2014-Nov-23 13:34N 38°42' E 007°32'3115.0
2014-Nov-23 11:29N 38°45' E 006°52'1415.4
2014-Nov-23 10:33N 38°47' E 006°34'2216.3
2014-Nov-23 09:14N 38°49' E 006°06'1215.2
2014-Nov-23 08:26N 38°50' E 005°51'1615.8
2014-Nov-23 07:25N 38°52' E 005°31'5016.0
2014-Nov-23 04:19N 38°57' E 004°27'1316.4
2014-Nov-23 03:33N 38°59' E 004°11'1616.2
2014-Nov-23 02:33N 39°01' E 003°50'1616.0
2014-Nov-23 01:34N 39°02' E 003°30'1615.7
2014-Nov-23 00:33N 39°03' E 003°10'1515.2
2014-Nov-22 23:33N 39°06' E 002°51'1615.9
2014-Nov-22 22:34N 39°21' E 002°43'1111.3
2014-Nov-22 21:33N 39°32' E 002°39'1 1.2
2014-Nov-22 20:33N 39°33' E 002°38'0 0.0
2014-Nov-22 19:30N 39°33' E 002°38'0 0.0
2014-Nov-22 18:33N 39°33' E 002°38'0 0.0
2014-Nov-22 17:33N 39°33' E 002°38'0 0.0
2014-Nov-22 16:33N 39°33' E 002°38'0 0.0
2014-Nov-22 15:33N 39°33' E 002°38'0 0.0
2014-Nov-22 14:33N 39°33' E 002°38'0 0.0
2014-Nov-22 13:33N 39°33' E 002°38'0 0.0
2014-Nov-22 12:32N 39°33' E 002°38'0 0.0
2014-Nov-22 11:33N 39°33' E 002°38'0 0.0
2014-Nov-22 10:31N 39°33' E 002°38'0 0.0
2014-Nov-22 09:31N 39°33' E 002°38'0 0.0
2014-Nov-22 08:33N 39°33' E 002°38'0 0.0
2014-Nov-22 07:33N 39°33' E 002°38'0 0.0
2014-Nov-22 06:33N 39°33' E 002°38'0 0.0
2014-Nov-22 05:33N 39°33' E 002°38'0 0.0
2014-Nov-22 04:33N 39°33' E 002°38'3 2.9
2014-Nov-22 03:33N 39°30' E 002°37'1313.0
2014-Nov-22 02:34N 39°29' E 002°20'1513.8
2014-Nov-22 01:30N 39°42' E 002°11'1415.3
2014-Nov-22 00:33N 39°56' E 002°11'9 9.3
2014-Nov-21 23:33N 40°06' E 002°11'9 9.1
2014-Nov-21 22:33N 40°15' E 002°12'9 8.7
2014-Nov-21 21:33N 40°24' E 002°13'8 8.5
2014-Nov-21 20:33N 40°32' E 002°12'1515.2
2014-Nov-21 19:33N 40°47' E 002°13'1616.1
2014-Nov-21 18:33N 41°03' E 002°13'1515.4
2014-Nov-21 17:33N 41°19' E 002°13'4 0.4
2014-Nov-21 07:07N 41°20' E 002°19'51015.1
2014-Nov-19 21:23N 40°40' E 013°32'11 9.9
2014-Nov-19 20:17N 40°39' E 013°46'1216.2
2014-Nov-19 19:33N 40°39' E 014°02'13 0.9
2014-Nov-19 05:33N 40°46' E 014°16'1212.2
2014-Nov-19 04:33N 40°35' E 014°09'9 9.1
2014-Nov-19 03:33N 40°26' E 014°06'10015.4
2014-Nov-18 21:06N 38°49' E 013°37'916.3
2014-Nov-18 20:34N 38°41' E 013°35'1616.4
2014-Nov-18 19:34N 38°25' E 013°30'1616.0
2014-Nov-18 18:33N 38°09' E 013°26'3 3.1
2014-Nov-18 17:34N 38°08' E 013°22'0 0.0
2014-Nov-18 16:30N 38°08' E 013°22'0 0.0
2014-Nov-18 15:33N 38°08' E 013°22'0 0.0
2014-Nov-18 14:33N 38°08' E 013°22'0 0.0
2014-Nov-18 13:33N 38°08' E 013°22'0 0.0
2014-Nov-18 12:33N 38°08' E 013°22'0 0.0
2014-Nov-18 11:33N 38°08' E 013°22'0 0.0
2014-Nov-18 10:33N 38°08' E 013°22'0 0.0
2014-Nov-18 09:33N 38°08' E 013°22'0 0.0
2014-Nov-18 08:33N 38°08' E 013°22'0 0.0
2014-Nov-18 07:32N 38°08' E 013°22'3 3.5
2014-Nov-18 06:33N 38°10' E 013°24'1313.0
2014-Nov-18 05:33N 38°17' E 013°10'1916.2
2014-Nov-18 04:24N 38°16' E 012°46'16512.7
2014-Nov-17 15:24N 35°55' E 014°32'151 8.7
2014-Nov-16 22:04N 37°08' E 011°47'1016.3
2014-Nov-16 21:29N 37°12' E 011°36'38119.0
2014-Nov-16 01:29N 38°53' E 003°50'1819.0
2014-Nov-16 00:33N 38°58' E 003°28'1918.6
2014-Nov-15 23:33N 39°03' E 003°05'1716.9
2014-Nov-15 22:33N 39°13' E 002°47'1919.0
2014-Nov-15 21:33N 39°30' E 002°39'2 2.4
2014-Nov-15 20:31N 39°33' E 002°38'0 0.0
2014-Nov-15 19:31N 39°33' E 002°38'0 0.0
2014-Nov-15 18:31N 39°33' E 002°38'0 0.0
2014-Nov-15 17:31N 39°33' E 002°38'0 0.0
2014-Nov-15 16:31N 39°33' E 002°38'0 0.0
2014-Nov-15 15:31N 39°33' E 002°38'0 0.0
2014-Nov-15 14:32N 39°33' E 002°38'0 0.0
2014-Nov-15 13:33N 39°33' E 002°38'0 0.0
2014-Nov-15 12:33N 39°33' E 002°38'0 0.0
2014-Nov-15 11:33N 39°33' E 002°38'0 0.0
2014-Nov-15 10:31N 39°33' E 002°38'0 0.0
2014-Nov-15 09:31N 39°33' E 002°38'0 0.0
2014-Nov-15 08:31N 39°33' E 002°38'0 0.0
2014-Nov-15 07:22N 39°33' E 002°38'0 0.0
2014-Nov-15 06:31N 39°33' E 002°38'0 0.0
2014-Nov-15 05:31N 39°33' E 002°38'0 0.0
2014-Nov-15 04:31N 39°33' E 002°38'3 2.8
2014-Nov-15 03:34N 39°30' E 002°37'1212.3
2014-Nov-15 02:33N 39°29' E 002°21'1212.2
2014-Nov-15 01:33N 39°38' E 002°11'1313.3
2014-Nov-15 00:33N 39°51' E 002°11'1313.2
2014-Nov-14 23:34N 40°04' E 002°11'1413.6
2014-Nov-14 22:33N 40°18' E 002°11'1514.5
2014-Nov-14 21:33N 40°32' E 002°11'1515.1
2014-Nov-14 20:33N 40°48' E 002°11'  
Track history (hours):
 
Tides and Currents Weather Stations Pressure Air Temp Water Temp Dewpoint Dewpoint Depression Visibility Wind Speed Wind Dir Waves Ship Positions

Aidamar

Last reported at 2014-Nov-24 20:33 UTC. Time now 2014-Nov-24 22:49 UTC.
Position N 38°42' E 013°35'.

Length 253 m; draft 7.3 m.

Type: Ship. MMSI: 247312900.

Date/timePositionNaut miles runAvg speedWind from/ knotsBaromVisibWave heightAir tempDewpointWater temp
2014-Nov-24 20:33N 38°42' E 013°35'1616.4
2014-Nov-24 19:33N 38°26' E 013°31'1616.4
2014-Nov-24 18:33N 38°10' E 013°26'4 3.9
2014-Nov-24 17:31N 38°08' E 013°22'0 0.0
2014-Nov-24 16:33N 38°08' E 013°22'0 0.0
2014-Nov-24 15:32N 38°08' E 013°22'0 0.0
2014-Nov-24 14:32N 38°08' E 013°22'0 0.0
2014-Nov-24 13:31N 38°08' E 013°22'0 0.0
2014-Nov-24 12:33N 38°08' E 013°22'0 0.0
2014-Nov-24 11:33N 38°08' E 013°22'0 0.0
2014-Nov-24 10:32N 38°08' E 013°22'0 0.0
2014-Nov-24 09:30N 38°08' E 013°22'0 0.0
2014-Nov-24 08:33N 38°08' E 013°22'0 0.0
2014-Nov-24 07:33N 38°08' E 013°22'5 5.2
2014-Nov-24 06:33N 38°13' E 013°24'1414.1
2014-Nov-24 05:34N 38°18' E 013°07'1616.2
2014-Nov-24 04:34N 38°20' E 012°46'1716.0
2014-Nov-24 03:32N 38°21' E 012°25'11115.9
2014-Nov-23 20:34N 38°31' E 010°05'1615.5
2014-Nov-23 19:32N 38°32' E 009°45'1515.3
2014-Nov-23 18:33N 38°33' E 009°25'1616.1
2014-Nov-23 17:33N 38°35' E 009°05'1918.9
2014-Nov-23 16:33N 38°37' E 008°41'1918.6
2014-Nov-23 15:33N 38°38' E 008°17'1818.3
2014-Nov-23 14:33N 38°40' E 007°54'1717.3
2014-Nov-23 13:34N 38°42' E 007°32'3115.0
2014-Nov-23 11:29N 38°45' E 006°52'1415.4
2014-Nov-23 10:33N 38°47' E 006°34'2216.3
2014-Nov-23 09:14N 38°49' E 006°06'1215.2
2014-Nov-23 08:26N 38°50' E 005°51'1615.8
2014-Nov-23 07:25N 38°52' E 005°31'5016.0
2014-Nov-23 04:19N 38°57' E 004°27'1316.4
2014-Nov-23 03:33N 38°59' E 004°11'1616.2
2014-Nov-23 02:33N 39°01' E 003°50'1616.0
2014-Nov-23 01:34N 39°02' E 003°30'1615.7
2014-Nov-23 00:33N 39°03' E 003°10'1515.2
2014-Nov-22 23:33N 39°06' E 002°51'1615.9
2014-Nov-22 22:34N 39°21' E 002°43'1111.3
2014-Nov-22 21:33N 39°32' E 002°39'1 1.2
2014-Nov-22 20:33N 39°33' E 002°38'0 0.0
2014-Nov-22 19:30N 39°33' E 002°38'0 0.0
2014-Nov-22 18:33N 39°33' E 002°38'0 0.0
2014-Nov-22 17:33N 39°33' E 002°38'0 0.0
2014-Nov-22 16:33N 39°33' E 002°38'0 0.0
2014-Nov-22 15:33N 39°33' E 002°38'0 0.0
2014-Nov-22 14:33N 39°33' E 002°38'0 0.0
2014-Nov-22 13:33N 39°33' E 002°38'0 0.0
2014-Nov-22 12:32N 39°33' E 002°38'0 0.0
2014-Nov-22 11:33N 39°33' E 002°38'0 0.0
2014-Nov-22 10:31N 39°33' E 002°38'0 0.0
2014-Nov-22 09:31N 39°33' E 002°38'0 0.0
2014-Nov-22 08:33N 39°33' E 002°38'0 0.0
2014-Nov-22 07:33N 39°33' E 002°38'0 0.0
2014-Nov-22 06:33N 39°33' E 002°38'0 0.0
2014-Nov-22 05:33N 39°33' E 002°38'0 0.0
2014-Nov-22 04:33N 39°33' E 002°38'3 2.9
2014-Nov-22 03:33N 39°30' E 002°37'1313.0
2014-Nov-22 02:34N 39°29' E 002°20'1513.8
2014-Nov-22 01:30N 39°42' E 002°11'1415.3
2014-Nov-22 00:33N 39°56' E 002°11'9 9.3
2014-Nov-21 23:33N 40°06' E 002°11'9 9.1
2014-Nov-21 22:33N 40°15' E 002°12'9 8.7
2014-Nov-21 21:33N 40°24' E 002°13'8 8.5
2014-Nov-21 20:33N 40°32' E 002°12'1515.2
2014-Nov-21 19:33N 40°47' E 002°13'1616.1
2014-Nov-21 18:33N 41°03' E 002°13'1515.4
2014-Nov-21 17:33N 41°19' E 002°13'4 0.4
2014-Nov-21 07:07N 41°20' E 002°19'51015.1
2014-Nov-19 21:23N 40°40' E 013°32'11 9.9
2014-Nov-19 20:17N 40°39' E 013°46'1216.2
2014-Nov-19 19:33N 40°39' E 014°02'13 0.9
2014-Nov-19 05:33N 40°46' E 014°16'1212.2
2014-Nov-19 04:33N 40°35' E 014°09'9 9.1
2014-Nov-19 03:33N 40°26' E 014°06'10015.4
2014-Nov-18 21:06N 38°49' E 013°37'916.3
2014-Nov-18 20:34N 38°41' E 013°35'1616.4
2014-Nov-18 19:34N 38°25' E 013°30'1616.0
2014-Nov-18 18:33N 38°09' E 013°26'3 3.1
2014-Nov-18 17:34N 38°08' E 013°22'0 0.0
2014-Nov-18 16:30N 38°08' E 013°22'0 0.0
2014-Nov-18 15:33N 38°08' E 013°22'0 0.0
2014-Nov-18 14:33N 38°08' E 013°22'0 0.0
2014-Nov-18 13:33N 38°08' E 013°22'0 0.0
2014-Nov-18 12:33N 38°08' E 013°22'0 0.0
2014-Nov-18 11:33N 38°08' E 013°22'0 0.0
2014-Nov-18 10:33N 38°08' E 013°22'0 0.0
2014-Nov-18 09:33N 38°08' E 013°22'0 0.0
2014-Nov-18 08:33N 38°08' E 013°22'0 0.0
2014-Nov-18 07:32N 38°08' E 013°22'3 3.5
2014-Nov-18 06:33N 38°10' E 013°24'1313.0
2014-Nov-18 05:33N 38°17' E 013°10'1916.2
2014-Nov-18 04:24N 38°16' E 012°46'16512.7
2014-Nov-17 15:24N 35°55' E 014°32'151 8.7
2014-Nov-16 22:04N 37°08' E 011°47'1016.3
2014-Nov-16 21:29N 37°12' E 011°36'38119.0
2014-Nov-16 01:29N 38°53' E 003°50'1819.0
2014-Nov-16 00:33N 38°58' E 003°28'1918.6
2014-Nov-15 23:33N 39°03' E 003°05'1716.9
2014-Nov-15 22:33N 39°13' E 002°47'1919.0
2014-Nov-15 21:33N 39°30' E 002°39'2 2.4
2014-Nov-15 20:31N 39°33' E 002°38'0 0.0
2014-Nov-15 19:31N 39°33' E 002°38'0 0.0
2014-Nov-15 18:31N 39°33' E 002°38'0 0.0
2014-Nov-15 17:31N 39°33' E 002°38'0 0.0
2014-Nov-15 16:31N 39°33' E 002°38'0 0.0
2014-Nov-15 15:31N 39°33' E 002°38'0 0.0
2014-Nov-15 14:32N 39°33' E 002°38'0 0.0
2014-Nov-15 13:33N 39°33' E 002°38'0 0.0
2014-Nov-15 12:33N 39°33' E 002°38'0 0.0
2014-Nov-15 11:33N 39°33' E 002°38'0 0.0
2014-Nov-15 10:31N 39°33' E 002°38'0 0.0
2014-Nov-15 09:31N 39°33' E 002°38'0 0.0
2014-Nov-15 08:31N 39°33' E 002°38'0 0.0
2014-Nov-15 07:22N 39°33' E 002°38'0 0.0
2014-Nov-15 06:31N 39°33' E 002°38'0 0.0
2014-Nov-15 05:31N 39°33' E 002°38'0 0.0
2014-Nov-15 04:31N 39°33' E 002°38'3 2.8
2014-Nov-15 03:34N 39°30' E 002°37'1212.3
2014-Nov-15 02:33N 39°29' E 002°21'1212.2
2014-Nov-15 01:33N 39°38' E 002°11'1313.3
2014-Nov-15 00:33N 39°51' E 002°11'1313.2
2014-Nov-14 23:34N 40°04' E 002°11'1413.6
2014-Nov-14 22:33N 40°18' E 002°11'1514.5
2014-Nov-14 21:33N 40°32' E 002°11'1515.1
2014-Nov-14 20:33N 40°48' E 002°11'  

Dump ship's entire track history